createdAt,value
2022-08-05T00:01:35.511Z,8.00
2022-08-05T00:04:05.209Z,7.53
2022-08-05T00:06:36.052Z,6.07
2022-08-05T00:09:04.051Z,7.70
2022-08-05T00:11:35.132Z,6.63
2022-08-05T00:14:16.955Z,7.00
2022-08-05T00:16:53.323Z,7.43
2022-08-05T00:19:22.715Z,6.00
2022-08-05T00:21:51.501Z,6.07
2022-08-05T00:24:19.230Z,5.63
2022-08-05T00:26:52.959Z,8.03
2022-08-05T00:29:22.341Z,5.33
2022-08-05T00:31:54.310Z,6.40
2022-08-05T00:34:55.262Z,6.30
2022-08-05T00:37:22.555Z,6.80
2022-08-05T00:39:58.027Z,5.90
2022-08-05T00:42:37.058Z,3.97
2022-08-05T00:45:08.653Z,6.13
2022-08-05T00:47:56.461Z,5.03
2022-08-05T00:50:25.305Z,3.60
2022-08-05T00:52:53.228Z,6.63
2022-08-05T00:55:20.057Z,5.40
2022-08-05T00:57:58.179Z,5.10
2022-08-05T01:00:27.610Z,4.40
2022-08-05T01:02:54.593Z,5.27
2022-08-05T01:05:21.351Z,5.33
2022-08-05T01:08:29.803Z,6.73
2022-08-05T01:10:42.172Z,5.73
2022-08-05T01:13:57.916Z,5.90
2022-08-05T01:16:26.344Z,8.77
2022-08-05T01:19:00.705Z,5.27
2022-08-05T01:21:38.144Z,5.87
2022-08-05T01:24:23.763Z,7.00
2022-08-05T01:27:24.881Z,6.03
2022-08-05T01:29:55.077Z,6.23
2022-08-05T01:32:27.531Z,8.27
2022-08-05T01:35:01.086Z,5.20
2022-08-05T01:37:44.484Z,4.50
2022-08-05T01:40:12.718Z,5.50
2022-08-05T01:42:41.461Z,5.53
2022-08-05T01:45:09.411Z,7.60
2022-08-05T01:47:38.855Z,7.97
2022-08-05T01:50:15.302Z,6.10
2022-08-05T01:52:43.914Z,6.10
2022-08-05T01:55:12.152Z,5.03
2022-08-05T01:58:09.773Z,6.57
2022-08-05T02:00:30.324Z,6.63
2022-08-05T02:03:24.256Z,4.50
2022-08-05T02:05:59.705Z,5.63
2022-08-05T02:08:31.090Z,7.23
2022-08-05T02:11:13.037Z,5.83
2022-08-05T02:13:54.125Z,4.50
2022-08-05T02:16:28.167Z,5.27
2022-08-05T02:19:11.920Z,5.80
2022-08-05T02:21:49.782Z,6.87
2022-08-05T02:24:19.386Z,5.03
2022-08-05T02:26:54.605Z,5.37
2022-08-05T02:29:24.310Z,5.03
2022-08-05T02:32:11.665Z,5.67
2022-08-05T02:34:46.446Z,6.50
2022-08-05T02:37:22.434Z,5.17
2022-08-05T02:39:51.685Z,6.70
2022-08-05T02:42:25.748Z,7.60
2022-08-05T02:44:52.880Z,7.73
2022-08-05T02:47:20.300Z,5.23
2022-08-05T02:49:47.205Z,5.60
2022-08-05T02:52:30.012Z,7.20
2022-08-05T02:54:57.799Z,5.60
2022-08-05T02:58:11.666Z,6.33
2022-08-05T03:00:13.175Z,6.40
2022-08-05T03:02:41.124Z,5.53
2022-08-05T03:05:11.498Z,6.57
2022-08-05T03:07:59.449Z,5.87
2022-08-05T03:10:26.451Z,7.87
2022-08-05T03:12:54.263Z,6.73
2022-08-05T03:15:23.647Z,5.73
2022-08-05T03:17:53.912Z,6.90
2022-08-05T03:20:21.976Z,5.07
2022-08-05T03:22:50.592Z,8.73
2022-08-05T03:25:33.787Z,7.03
2022-08-05T03:28:08.278Z,8.40
2022-08-05T03:30:35.543Z,5.00
2022-08-05T03:33:03.575Z,8.13
2022-08-05T03:35:33.979Z,8.40
2022-08-05T03:38:07.398Z,8.23
2022-08-05T03:40:34.192Z,7.03
2022-08-05T03:43:59.235Z,6.37
2022-08-05T03:45:55.245Z,8.63
2022-08-05T03:48:25.733Z,6.70
2022-08-05T03:50:53.975Z,8.07
2022-08-05T03:55:52.079Z,9.23
2022-08-05T03:56:34.983Z,5.77
2022-08-05T03:59:05.681Z,8.63
2022-08-05T04:01:33.054Z,8.60
2022-08-05T04:04:09.228Z,8.00
2022-08-05T04:06:37.572Z,8.07
2022-08-05T04:09:06.252Z,8.90
2022-08-05T04:11:47.737Z,9.37
2022-08-05T04:14:19.411Z,6.37
2022-08-05T04:16:58.047Z,7.33
2022-08-05T04:19:24.675Z,7.80
2022-08-05T04:22:09.849Z,7.47
2022-08-05T04:24:44.076Z,7.83
2022-08-05T04:27:14.160Z,8.27
2022-08-05T04:29:41.922Z,7.93
2022-08-05T04:32:09.332Z,9.53
2022-08-05T04:34:42.741Z,8.57
2022-08-05T04:37:10.079Z,10.07
2022-08-05T04:39:37.572Z,9.00
2022-08-05T04:42:06.029Z,9.63
2022-08-05T04:44:33.047Z,7.90
2022-08-05T04:46:59.880Z,9.53
2022-08-05T04:49:38.633Z,7.13
2022-08-05T04:52:22.303Z,7.07
2022-08-05T04:54:49.447Z,8.90
2022-08-05T04:57:16.133Z,10.87
2022-08-05T04:59:42.635Z,8.33
2022-08-05T05:02:37.433Z,8.40
2022-08-05T05:05:02.805Z,6.17
2022-08-05T05:07:32.086Z,6.70
2022-08-05T05:09:59.614Z,8.53
2022-08-05T05:12:29.242Z,8.33
2022-08-05T05:14:55.772Z,8.47
2022-08-05T05:17:24.684Z,8.33
2022-08-05T05:20:09.919Z,6.87
2022-08-05T05:22:40.776Z,7.97
2022-08-05T05:25:17.115Z,8.13
2022-08-05T05:27:53.665Z,5.67
2022-08-05T05:30:29.136Z,7.50
2022-08-05T05:33:00.735Z,9.53
2022-08-05T05:35:37.977Z,9.83
2022-08-05T05:38:12.934Z,6.80
2022-08-05T05:40:47.940Z,7.73
2022-08-05T05:43:22.255Z,8.70
2022-08-05T05:46:03.335Z,6.90
2022-08-05T05:48:31.644Z,8.37
2022-08-05T05:50:58.186Z,6.90
2022-08-05T05:53:24.702Z,8.63
2022-08-05T05:56:01.401Z,6.23
2022-08-05T05:58:32.026Z,7.87
2022-08-05T06:01:02.551Z,7.80
2022-08-05T06:04:01.052Z,7.77
2022-08-05T06:06:28.027Z,8.87
2022-08-05T06:08:58.011Z,6.17
2022-08-05T06:11:24.545Z,7.23
2022-08-05T06:13:54.266Z,11.53
2022-08-05T06:16:30.953Z,7.20
2022-08-05T06:19:05.398Z,7.77
2022-08-05T06:21:36.911Z,7.30
2022-08-05T06:24:12.168Z,8.33
2022-08-05T06:26:51.390Z,7.30
2022-08-05T06:29:25.160Z,6.00
2022-08-05T06:32:06.328Z,8.70
2022-08-05T06:34:53.485Z,8.00
2022-08-05T06:37:52.346Z,8.37
2022-08-05T06:40:10.055Z,7.20
2022-08-05T06:42:37.291Z,6.13
2022-08-05T06:45:08.851Z,6.07
2022-08-05T06:48:44.223Z,8.40
2022-08-05T06:50:23.633Z,5.73
2022-08-05T06:52:58.862Z,7.20
2022-08-05T06:55:36.978Z,6.20
2022-08-05T06:58:19.770Z,5.43
2022-08-05T07:00:50.946Z,7.50
2022-08-05T07:03:17.770Z,5.70
2022-08-05T07:05:44.706Z,5.87
2022-08-05T07:08:13.061Z,6.50
2022-08-05T07:10:53.509Z,6.80
2022-08-05T07:13:57.161Z,6.37
2022-08-05T07:17:56.690Z,7.13
2022-08-05T07:22:17.078Z,4.43
2022-08-05T07:24:43.928Z,7.03
2022-08-05T07:27:19.133Z,3.80
2022-08-05T07:30:27.434Z,5.70
2022-08-05T07:32:38.211Z,4.30
2022-08-05T07:36:02.438Z,4.80
2022-08-05T07:37:55.443Z,4.90
2022-08-05T07:40:32.081Z,8.73
2022-08-05T07:42:59.316Z,7.77
2022-08-05T07:45:57.029Z,7.63
2022-08-05T07:49:02.709Z,5.63
2022-08-05T07:51:08.589Z,3.60
2022-08-05T07:53:51.664Z,4.93
2022-08-05T07:57:02.822Z,4.70
2022-08-05T07:59:04.954Z,5.70
2022-08-05T08:01:35.306Z,3.63
2022-08-05T08:04:08.085Z,5.23
2022-08-05T08:06:34.686Z,5.97
2022-08-05T08:09:01.305Z,4.33
2022-08-05T08:11:47.185Z,4.37
2022-08-05T08:14:20.452Z,5.23
2022-08-05T08:16:51.239Z,5.57
2022-08-05T08:20:22.898Z,5.13
2022-08-05T08:22:09.073Z,4.10
2022-08-05T08:24:51.813Z,4.90
2022-08-05T08:27:18.982Z,4.13
2022-08-05T08:30:05.897Z,5.30
2022-08-05T08:32:34.680Z,5.63
2022-08-05T08:35:07.552Z,5.03
2022-08-05T08:37:40.328Z,7.50
2022-08-05T08:40:12.010Z,5.50
2022-08-05T08:42:52.588Z,4.33
2022-08-05T08:45:26.783Z,3.67
2022-08-05T08:48:07.539Z,4.23
2022-08-05T08:51:07.763Z,4.03
2022-08-05T08:53:37.068Z,4.53
2022-08-05T08:56:06.205Z,6.93
2022-08-05T08:58:37.534Z,4.27
2022-08-05T09:01:16.335Z,3.80
2022-08-05T09:03:46.197Z,4.43
2022-08-05T09:06:17.189Z,3.13
2022-08-05T09:08:46.641Z,4.07
2022-08-05T09:11:14.848Z,3.53
2022-08-05T09:14:09.345Z,6.07
2022-08-05T09:16:29.847Z,4.57
2022-08-05T09:18:56.354Z,5.40
2022-08-05T09:22:30.837Z,6.17
2022-08-05T09:24:15.389Z,4.23
2022-08-05T09:26:43.701Z,3.83
2022-08-05T09:29:10.913Z,3.93
2022-08-05T09:32:40.352Z,2.60
2022-08-05T09:34:55.866Z,3.77
2022-08-05T09:38:12.731Z,3.43
2022-08-05T09:40:39.338Z,3.90
2022-08-05T09:43:41.474Z,6.00
2022-08-05T09:46:27.440Z,6.23
2022-08-05T09:49:06.971Z,5.20
2022-08-05T09:51:42.314Z,4.60
2022-08-05T09:54:10.011Z,3.60
2022-08-05T09:56:38.019Z,3.47
2022-08-05T09:59:11.423Z,3.77
2022-08-05T10:01:45.624Z,4.40
2022-08-05T10:04:16.219Z,3.80
2022-08-05T10:06:59.563Z,3.37
2022-08-05T10:09:29.432Z,4.60
2022-08-05T10:12:30.670Z,4.43
2022-08-05T10:15:13.449Z,5.57
2022-08-05T10:17:47.156Z,5.17
2022-08-05T10:20:23.191Z,4.00
2022-08-05T10:22:51.741Z,3.63
2022-08-05T10:25:19.240Z,2.77
2022-08-05T10:28:16.819Z,6.00
2022-08-05T10:31:20.412Z,3.83
2022-08-05T10:33:25.668Z,3.83
2022-08-05T10:35:59.788Z,3.70
2022-08-05T10:38:28.770Z,5.00
2022-08-05T10:41:03.806Z,5.77
2022-08-05T10:43:49.369Z,3.90
2022-08-05T10:46:19.305Z,3.97
2022-08-05T10:48:57.441Z,4.40
2022-08-05T10:51:28.956Z,5.23
2022-08-05T10:53:56.124Z,3.17
2022-08-05T10:56:27.400Z,5.47
2022-08-05T10:58:53.858Z,7.70
2022-08-05T11:01:54.823Z,4.43
2022-08-05T11:04:31.725Z,4.63
2022-08-05T11:07:01.355Z,6.37
2022-08-05T11:09:49.363Z,7.03
2022-08-05T11:12:34.238Z,6.10
2022-08-05T11:15:19.489Z,5.70
2022-08-05T11:17:59.193Z,4.80
2022-08-05T11:20:33.269Z,5.33
2022-08-05T11:23:08.801Z,4.83
2022-08-05T11:26:05.370Z,5.77
2022-08-05T11:28:30.631Z,6.13
2022-08-05T11:31:02.387Z,7.87
2022-08-05T11:33:34.543Z,4.13
2022-08-05T11:36:14.828Z,6.73
2022-08-05T11:38:45.708Z,5.83
2022-08-05T11:41:54.673Z,6.47
2022-08-05T11:44:10.610Z,5.60
2022-08-05T11:47:10.127Z,6.07
2022-08-05T11:49:27.688Z,7.30
2022-08-05T11:51:54.709Z,8.00
2022-08-05T11:54:33.214Z,7.33
2022-08-05T11:57:02.162Z,4.00
2022-08-05T11:59:49.862Z,4.30
2022-08-05T12:02:30.420Z,6.50
2022-08-05T12:05:00.166Z,6.17
2022-08-05T12:08:02.649Z,4.00
2022-08-05T12:10:18.636Z,5.40
2022-08-05T12:12:58.147Z,5.17
2022-08-05T12:15:33.965Z,4.63
2022-08-05T12:18:10.515Z,4.27
2022-08-05T12:20:38.802Z,6.60
2022-08-05T12:23:12.168Z,5.67
2022-08-05T12:25:51.619Z,4.43
2022-08-05T12:28:37.091Z,6.23
2022-08-05T12:31:04.669Z,8.27
2022-08-05T12:33:36.546Z,4.23
2022-08-05T12:36:07.159Z,6.00
2022-08-05T12:38:38.167Z,4.47
2022-08-05T12:41:12.823Z,4.90
2022-08-05T12:43:54.296Z,3.60
2022-08-05T12:46:29.686Z,5.73
2022-08-05T12:49:13.707Z,4.73
2022-08-05T12:52:13.012Z,9.53
2022-08-05T12:54:36.669Z,5.70
2022-08-05T12:57:09.569Z,3.83
2022-08-05T13:01:57.284Z,5.20
2022-08-05T13:02:40.920Z,6.80
2022-08-05T13:05:08.047Z,4.27
2022-08-05T13:07:59.363Z,4.60
2022-08-05T13:10:26.302Z,3.70
2022-08-05T13:12:58.066Z,4.93
2022-08-05T13:15:35.928Z,3.40
2022-08-05T13:18:08.463Z,4.30
2022-08-05T13:20:40.495Z,5.20
2022-08-05T13:58:30.436Z,4.83
2022-08-05T15:21:48.166Z,5.10
2022-08-05T15:28:14.414Z,4.10
2022-08-05T15:34:31.362Z,4.03
2022-08-05T15:37:03.435Z,3.43
2022-08-05T15:40:59.707Z,6.23
2022-08-05T15:42:56.583Z,4.77
2022-08-05T15:45:36.313Z,5.73
2022-08-05T15:48:05.477Z,4.03
2022-08-05T15:50:33.445Z,8.83
2022-08-05T15:53:04.004Z,3.23
2022-08-05T15:56:03.766Z,6.00
2022-08-05T15:58:18.847Z,5.83
2022-08-05T16:00:57.059Z,4.13
2022-08-05T16:03:32.626Z,5.13
2022-08-05T16:06:00.410Z,4.20
2022-08-05T16:08:30.584Z,5.20
2022-08-05T16:10:57.883Z,3.60
2022-08-05T16:13:32.041Z,4.10
2022-08-05T16:16:01.078Z,3.30
2022-08-05T16:18:28.988Z,1.77
2022-08-05T16:20:55.676Z,3.93
2022-08-05T16:23:22.350Z,3.13
2022-08-05T16:25:49.877Z,2.37
2022-08-05T16:28:22.394Z,3.70
2022-08-05T16:30:52.122Z,2.87
2022-08-05T16:33:19.383Z,1.97
2022-08-05T16:35:49.885Z,5.47
2022-08-05T16:38:25.127Z,6.13
2022-08-05T16:41:00.483Z,2.73
2022-08-05T16:43:34.515Z,3.27
2022-08-05T16:46:23.406Z,3.33
2022-08-05T16:48:49.965Z,2.50
2022-08-05T16:51:16.462Z,1.33
2022-08-05T16:54:03.004Z,1.80
2022-08-05T16:56:33.598Z,1.80
2022-08-05T16:59:08.149Z,2.53
2022-08-05T17:01:54.859Z,2.83
2022-08-05T17:04:23.703Z,2.17
2022-08-05T17:06:53.282Z,1.83
2022-08-05T17:09:20.478Z,2.23
2022-08-05T17:11:49.007Z,1.87
2022-08-05T17:14:22.164Z,2.73
2022-08-05T17:17:01.308Z,2.50
2022-08-05T17:19:29.251Z,1.30
2022-08-05T17:21:57.174Z,1.97
2022-08-05T17:24:36.493Z,1.53
2022-08-05T17:27:08.219Z,3.37
2022-08-05T17:29:40.895Z,2.13
2022-08-05T17:32:17.245Z,1.63
2022-08-05T17:34:48.483Z,2.30
2022-08-05T17:37:41.165Z,2.73
2022-08-05T17:40:10.957Z,1.97
2022-08-05T17:42:43.183Z,2.23
2022-08-05T17:45:21.252Z,2.43
2022-08-05T17:47:53.861Z,1.63
2022-08-05T17:50:28.587Z,1.93
2022-08-05T17:52:59.113Z,2.10
2022-08-05T17:55:34.247Z,1.50
2022-08-05T17:58:05.294Z,1.83
2022-08-05T18:00:34.534Z,1.43
2022-08-05T18:03:02.087Z,1.20
2022-08-05T18:05:35.197Z,1.67
2022-08-05T18:08:02.394Z,1.20
2022-08-05T18:10:30.119Z,1.90
2022-08-05T18:13:07.664Z,2.13
2022-08-05T18:15:40.409Z,2.13
2022-08-05T18:18:11.184Z,2.27
2022-08-05T18:20:38.317Z,2.17
2022-08-05T18:23:11.393Z,1.73
2022-08-05T18:25:44.761Z,1.43
2022-08-05T18:28:17.134Z,2.03
2022-08-05T18:33:58.018Z,1.27
2022-08-05T18:40:34.235Z,3.50
2022-08-05T18:42:57.814Z,1.23
2022-08-05T18:45:24.918Z,1.17
2022-08-05T18:48:07.430Z,1.70
2022-08-05T18:50:56.695Z,2.20
2022-08-05T18:53:45.756Z,2.70
2022-08-05T19:03:54.900Z,1.10
2022-08-05T19:10:55.819Z,2.30
2022-08-05T19:24:08.209Z,2.30
2022-08-05T19:26:35.986Z,2.73
2022-08-05T19:29:20.623Z,2.77
2022-08-05T19:31:51.311Z,2.53
2022-08-05T19:34:18.813Z,2.07
2022-08-05T19:36:45.396Z,2.83
2022-08-05T19:39:13.852Z,1.40
2022-08-05T19:42:06.351Z,5.17
2022-08-05T19:44:30.367Z,2.47
2022-08-05T19:46:57.013Z,1.73
2022-08-05T19:49:24.186Z,2.73
2022-08-05T19:52:04.761Z,2.20
2022-08-05T19:54:34.632Z,2.17
2022-08-05T19:57:09.155Z,1.57
2022-08-05T20:00:00.606Z,2.10
2022-08-05T20:02:25.936Z,1.73
2022-08-05T20:04:53.173Z,2.57
2022-08-05T20:07:46.648Z,3.50
2022-08-05T20:10:13.851Z,3.27
2022-08-05T20:12:46.109Z,3.57
2022-08-05T20:15:48.589Z,1.63
2022-08-05T20:18:10.017Z,2.23
2022-08-05T20:20:47.027Z,4.33
2022-08-05T20:23:13.857Z,4.17
2022-08-05T20:25:41.716Z,2.17
2022-08-05T20:28:13.674Z,1.97
2022-08-05T20:30:41.241Z,3.30
2022-08-05T20:33:08.740Z,2.10
2022-08-05T20:35:40.632Z,3.73
2022-08-05T20:38:20.175Z,1.80
2022-08-05T20:40:53.929Z,2.27
2022-08-05T20:43:57.507Z,1.60
2022-08-05T20:46:10.211Z,2.80
2022-08-05T20:48:39.349Z,4.43
2022-08-05T20:51:08.772Z,1.97
2022-08-05T20:53:36.531Z,3.60
2022-08-05T20:56:08.245Z,3.90
2022-08-05T20:58:35.796Z,2.93
2022-08-05T21:01:03.580Z,5.47
2022-08-05T21:03:34.174Z,4.53
2022-08-05T21:06:01.789Z,5.13
2022-08-05T21:08:42.121Z,2.43
2022-08-05T21:11:12.400Z,2.50
2022-08-05T21:13:47.820Z,3.37
2022-08-05T21:16:29.679Z,1.97
2022-08-05T21:19:00.356Z,3.23
2022-08-05T21:21:44.617Z,3.40
2022-08-05T21:24:16.487Z,2.77
2022-08-05T21:26:53.597Z,1.60
2022-08-05T21:29:26.182Z,2.90
2022-08-05T21:31:53.563Z,4.23
2022-08-05T21:34:20.473Z,3.10
2022-08-05T21:36:49.103Z,2.60
2022-08-05T21:39:16.994Z,2.87
2022-08-05T21:42:01.310Z,3.63
2022-08-05T21:44:29.846Z,4.33
2022-08-05T21:46:58.337Z,3.30
2022-08-05T21:49:58.653Z,5.50
2022-08-05T21:52:21.786Z,4.93
2022-08-05T21:54:55.328Z,3.37
2022-08-05T21:57:31.365Z,1.40
2022-08-05T22:00:11.173Z,2.00
2022-08-05T22:02:38.488Z,1.50
2022-08-05T22:05:09.067Z,3.33
2022-08-05T22:07:39.303Z,4.30
2022-08-05T22:10:26.888Z,2.70
2022-08-05T22:12:54.405Z,4.17
2022-08-05T22:15:56.498Z,2.50
2022-08-05T22:18:11.843Z,5.13
2022-08-05T22:20:38.940Z,4.13
2022-08-05T22:23:25.450Z,2.50
2022-08-05T22:26:30.585Z,3.00
2022-08-05T22:28:57.141Z,2.40
2022-08-05T22:31:25.104Z,2.83
2022-08-05T22:34:01.314Z,2.30
2022-08-05T22:36:28.924Z,5.33
2022-08-05T22:38:56.100Z,2.63
2022-08-05T22:41:26.417Z,3.87
2022-08-05T22:44:11.845Z,3.90
2022-08-05T22:46:40.535Z,4.07
2022-08-05T22:49:23.149Z,5.57
2022-08-05T22:52:06.527Z,1.67
2022-08-05T22:54:35.407Z,2.30
2022-08-05T22:57:03.388Z,3.97
2022-08-05T22:59:42.950Z,2.77
2022-08-05T23:02:13.775Z,4.13
2022-08-05T23:04:52.139Z,2.97
2022-08-05T23:07:19.597Z,2.00
2022-08-05T23:09:58.070Z,3.53
2022-08-05T23:12:32.634Z,4.33
2022-08-05T23:15:03.052Z,2.03
2022-08-05T23:17:34.712Z,4.43
2022-08-05T23:20:06.528Z,2.77
2022-08-05T23:22:43.706Z,3.40
2022-08-05T23:25:17.700Z,3.23
2022-08-05T23:28:01.360Z,1.93
2022-08-05T23:30:29.219Z,3.40
2022-08-05T23:32:57.750Z,3.13
2022-08-05T23:35:25.524Z,2.20
2022-08-05T23:37:55.530Z,3.50
2022-08-05T23:40:27.190Z,4.50
2022-08-05T23:42:54.011Z,3.90
2022-08-05T23:45:20.629Z,4.37
2022-08-05T23:47:53.920Z,4.67
2022-08-05T23:50:26.556Z,4.43
2022-08-05T23:52:54.630Z,2.23
2022-08-05T23:55:22.449Z,2.73
2022-08-05T23:57:52.910Z,3.63
